Bismarck Municipal Airport
KBIS : now visible

Airfield :











YOU CAN JOIN US ON...

 
LOGIN :

Register | Disclaimer

   EN    FR    IT 

 









Legend :    VFR   Marginal VFR   IFR   Intensive IFR   Very Intensive IFR
Visi :
Ceiling :
>= 8 km
>= 3000ft
5 to 8 km
1000 to 3000 ft
1500m to 5 km
500 to 1000 ft
800 to 1500m
200 to 500 ft
< 800m
< 200 ft
Symbols :   Thunderstorms  Fog  Heavy snow  Heavy precipitations  Wind > 20 kt






- Airport Elevation : 1661 ft
- IATA code : BIS


KBIS - Bismarck Municipal

CURRENT METAR :
  • 301452Z 30011G17KT 10SM CLR 23/12 A2994 RMK AO2 SLP130 T02330122 51014

EXPIRED METARs :
  • 301352Z 33013KT 10SM CLR 21/13 A2993 RMK AO2 SLP126 T02060128
  • 301252Z 30007KT 10SM CLR 18/13 A2992 RMK AO2 SLP121 T01780128

TAF KBIS
Valid from the 30 at 12:00 until the 01 at 12:00 UTC


301123Z 3012/0112 33006KT P6SM SCT110 BKN180
FM301400 33013G18KT P6SM SCT150
FM301700 32014G22KT P6SM FEW060 FEW250
FM302000 32018G26KT P6SM SCT070
FM010100 34009KT P6SM SKC
FM010500 30004KT P6SM SKC
KZMP FIR / North America



MET'MAP, your aeronautical weather chart ! - Copyright ORBIFLY December 2007 - Disclaimer

ORBIFLY MET'MAP TEAM :

Programming & Development : Alexandra Zaïnal
Original concept : Baudouin d'Aumeries
Technical & hardware support : Manuel Goepfert
Assistance : Marc-Olivier Méhu




SOURCES & CREDITS :

   NOAA       Earth
Advisory